sensor_id;sensor_type;location;lat;lon;timestamp;temperature;humidity
72940;DHT22;61094;51.154;13.570;2023-08-08T00:02:29;12.30;99.90
72940;DHT22;61094;51.154;13.570;2023-08-08T00:07:32;12.30;99.90
72940;DHT22;61094;51.154;13.570;2023-08-08T00:12:34;12.30;99.90
72940;DHT22;61094;51.154;13.570;2023-08-08T00:17:35;12.30;99.90
72940;DHT22;61094;51.154;13.570;2023-08-08T00:22:38;12.30;99.90
72940;DHT22;61094;51.154;13.570;2023-08-08T00:27:40;12.20;99.90
72940;DHT22;61094;51.154;13.570;2023-08-08T00:32:44;12.20;99.90
72940;DHT22;61094;51.154;13.570;2023-08-08T00:37:48;12.20;99.90
72940;DHT22;61094;51.154;13.570;2023-08-08T00:42:49;12.20;99.90
72940;DHT22;61094;51.154;13.570;2023-08-08T00:47:51;12.20;99.90
72940;DHT22;61094;51.154;13.570;2023-08-08T00:52:54;12.30;99.90
72940;DHT22;61094;51.154;13.570;2023-08-08T00:57:56;12.40;99.90
72940;DHT22;61094;51.154;13.570;2023-08-08T01:02:58;12.30;99.90
72940;DHT22;61094;51.154;13.570;2023-08-08T01:08:04;12.30;99.90
72940;DHT22;61094;51.154;13.570;2023-08-08T01:13:10;12.30;99.90
72940;DHT22;61094;51.154;13.570;2023-08-08T01:18:15;12.20;99.90
72940;DHT22;61094;51.154;13.570;2023-08-08T01:23:23;12.20;99.90
72940;DHT22;61094;51.154;13.570;2023-08-08T01:28:30;12.10;99.90
72940;DHT22;61094;51.154;13.570;2023-08-08T01:33:32;12.00;99.90
72940;DHT22;61094;51.154;13.570;2023-08-08T01:38:36;12.00;99.90
72940;DHT22;61094;51.154;13.570;2023-08-08T01:43:40;12.00;99.90
72940;DHT22;61094;51.154;13.570;2023-08-08T01:48:45;12.00;99.90
72940;DHT22;61094;51.154;13.570;2023-08-08T01:53:47;12.00;99.90
72940;DHT22;61094;51.154;13.570;2023-08-08T01:58:50;12.00;99.90
72940;DHT22;61094;51.154;13.570;2023-08-08T02:03:52;12.00;99.90
72940;DHT22;61094;51.154;13.570;2023-08-08T02:08:53;12.00;99.90
72940;DHT22;61094;51.154;13.570;2023-08-08T02:13:57;12.00;99.90
72940;DHT22;61094;51.154;13.570;2023-08-08T02:18:58;11.90;99.90
72940;DHT22;61094;51.154;13.570;2023-08-08T02:24:01;11.90;99.90
72940;DHT22;61094;51.154;13.570;2023-08-08T02:29:04;11.80;99.90
72940;DHT22;61094;51.154;13.570;2023-08-08T02:34:06;11.80;99.90
72940;DHT22;61094;51.154;13.570;2023-08-08T02:39:07;11.80;99.90
72940;DHT22;61094;51.154;13.570;2023-08-08T02:44:10;11.70;99.90
72940;DHT22;61094;51.154;13.570;2023-08-08T02:49:13;11.70;99.90
72940;DHT22;61094;51.154;13.570;2023-08-08T02:54:15;11.70;99.90
72940;DHT22;61094;51.154;13.570;2023-08-08T02:59:19;11.70;99.90
72940;DHT22;61094;51.154;13.570;2023-08-08T03:04:22;11.60;99.90
72940;DHT22;61094;51.154;13.570;2023-08-08T03:09:24;11.60;99.90
72940;DHT22;61094;51.154;13.570;2023-08-08T03:14:27;11.50;99.90
72940;DHT22;61094;51.154;13.570;2023-08-08T03:19:30;11.50;99.90
72940;DHT22;61094;51.154;13.570;2023-08-08T03:24:33;11.40;99.90
72940;DHT22;61094;51.154;13.570;2023-08-08T03:29:36;11.40;99.90
72940;DHT22;61094;51.154;13.570;2023-08-08T03:34:38;11.40;99.90
72940;DHT22;61094;51.154;13.570;2023-08-08T03:39:40;11.40;99.90
72940;DHT22;61094;51.154;13.570;2023-08-08T03:44:43;11.40;99.90
72940;DHT22;61094;51.154;13.570;2023-08-08T03:49:46;11.40;99.90
72940;DHT22;61094;51.154;13.570;2023-08-08T03:54:48;11.40;99.90
72940;DHT22;61094;51.154;13.570;2023-08-08T03:59:51;11.30;99.90
72940;DHT22;61094;51.154;13.570;2023-08-08T04:04:55;11.30;99.90
72940;DHT22;61094;51.154;13.570;2023-08-08T04:09:57;11.40;99.90
72940;DHT22;61094;51.154;13.570;2023-08-08T04:15:03;11.50;99.90
72940;DHT22;61094;51.154;13.570;2023-08-08T04:20:06;11.50;99.90
72940;DHT22;61094;51.154;13.570;2023-08-08T04:25:10;11.50;99.90
72940;DHT22;61094;51.154;13.570;2023-08-08T04:30:14;11.60;99.90
72940;DHT22;61094;51.154;13.570;2023-08-08T04:35:15;11.60;99.90
72940;DHT22;61094;51.154;13.570;2023-08-08T04:40:17;11.70;99.90
72940;DHT22;61094;51.154;13.570;2023-08-08T04:45:20;11.70;99.90
72940;DHT22;61094;51.154;13.570;2023-08-08T04:50:22;11.70;99.90
72940;DHT22;61094;51.154;13.570;2023-08-08T04:55:24;11.70;99.90
72940;DHT22;61094;51.154;13.570;2023-08-08T05:00:28;11.80;99.90
72940;DHT22;61094;51.154;13.570;2023-08-08T05:05:30;11.90;99.90
72940;DHT22;61094;51.154;13.570;2023-08-08T05:10:32;12.00;99.90
72940;DHT22;61094;51.154;13.570;2023-08-08T05:15:36;12.10;99.90
72940;DHT22;61094;51.154;13.570;2023-08-08T05:20:38;12.30;99.90
72940;DHT22;61094;51.154;13.570;2023-08-08T05:25:40;12.40;99.90
72940;DHT22;61094;51.154;13.570;2023-08-08T05:30:44;12.60;99.90
72940;DHT22;61094;51.154;13.570;2023-08-08T05:35:46;12.90;99.90
72940;DHT22;61094;51.154;13.570;2023-08-08T05:40:47;13.10;99.90
72940;DHT22;61094;51.154;13.570;2023-08-08T05:45:50;13.30;99.90
72940;DHT22;61094;51.154;13.570;2023-08-08T05:50:52;13.30;99.90
72940;DHT22;61094;51.154;13.570;2023-08-08T05:55:55;13.20;99.90
72940;DHT22;61094;51.154;13.570;2023-08-08T06:00:58;13.20;99.90
72940;DHT22;61094;51.154;13.570;2023-08-08T06:06:00;13.20;99.90
72940;DHT22;61094;51.154;13.570;2023-08-08T06:11:01;13.20;99.90
72940;DHT22;61094;51.154;13.570;2023-08-08T06:16:05;13.20;99.90
72940;DHT22;61094;51.154;13.570;2023-08-08T06:21:07;13.20;99.90
72940;DHT22;61094;51.154;13.570;2023-08-08T06:26:09;13.20;99.90
72940;DHT22;61094;51.154;13.570;2023-08-08T06:31:12;13.20;99.90
72940;DHT22;61094;51.154;13.570;2023-08-08T06:36:14;13.10;99.90
72940;DHT22;61094;51.154;13.570;2023-08-08T06:41:16;13.20;99.90
72940;DHT22;61094;51.154;13.570;2023-08-08T06:46:19;13.20;99.90
72940;DHT22;61094;51.154;13.570;2023-08-08T06:51:21;13.20;99.90
72940;DHT22;61094;51.154;13.570;2023-08-08T06:56:23;13.20;99.90
72940;DHT22;61094;51.154;13.570;2023-08-08T07:01:27;13.20;99.90
72940;DHT22;61094;51.154;13.570;2023-08-08T07:06:30;13.30;99.90
72940;DHT22;61094;51.154;13.570;2023-08-08T07:11:32;13.30;99.90
72940;DHT22;61094;51.154;13.570;2023-08-08T07:16:35;13.40;99.90
72940;DHT22;61094;51.154;13.570;2023-08-08T07:21:36;13.60;99.90
72940;DHT22;61094;51.154;13.570;2023-08-08T07:26:38;13.80;99.90
72940;DHT22;61094;51.154;13.570;2023-08-08T07:31:42;13.90;99.90
72940;DHT22;61094;51.154;13.570;2023-08-08T07:36:44;14.00;99.90
72940;DHT22;61094;51.154;13.570;2023-08-08T07:41:45;14.20;99.90
72940;DHT22;61094;51.154;13.570;2023-08-08T07:46:48;14.30;99.90
72940;DHT22;61094;51.154;13.570;2023-08-08T07:51:50;14.60;99.90
72940;DHT22;61094;51.154;13.570;2023-08-08T07:56:52;14.80;99.90
72940;DHT22;61094;51.154;13.570;2023-08-08T08:01:55;14.80;99.90
72940;DHT22;61094;51.154;13.570;2023-08-08T08:06:57;15.00;99.90
72940;DHT22;61094;51.154;13.570;2023-08-08T08:11:59;15.10;99.90
72940;DHT22;61094;51.154;13.570;2023-08-08T08:17:02;15.10;98.80
72940;DHT22;61094;51.154;13.570;2023-08-08T08:22:04;15.10;99.10
72940;DHT22;61094;51.154;13.570;2023-08-08T08:27:06;15.20;99.70
72940;DHT22;61094;51.154;13.570;2023-08-08T08:32:09;15.40;97.70
72940;DHT22;61094;51.154;13.570;2023-08-08T08:37:11;15.50;97.10
72940;DHT22;61094;51.154;13.570;2023-08-08T08:42:14;15.40;94.90
72940;DHT22;61094;51.154;13.570;2023-08-08T08:47:20;15.30;95.10
72940;DHT22;61094;51.154;13.570;2023-08-08T08:52:22;15.30;97.10
72940;DHT22;61094;51.154;13.570;2023-08-08T08:57:24;15.20;96.60
72940;DHT22;61094;51.154;13.570;2023-08-08T09:02:29;15.20;97.30
72940;DHT22;61094;51.154;13.570;2023-08-08T09:07:32;15.20;99.00
72940;DHT22;61094;51.154;13.570;2023-08-08T09:12:34;15.10;99.90
72940;DHT22;61094;51.154;13.570;2023-08-08T09:17:40;14.90;99.90
72940;DHT22;61094;51.154;13.570;2023-08-08T09:22:42;14.60;99.90
72940;DHT22;61094;51.154;13.570;2023-08-08T09:27:44;14.60;99.90
72940;DHT22;61094;51.154;13.570;2023-08-08T09:32:47;14.60;99.90
72940;DHT22;61094;51.154;13.570;2023-08-08T09:37:51;14.60;99.90
72940;DHT22;61094;51.154;13.570;2023-08-08T09:42:54;14.70;99.90
72940;DHT22;61094;51.154;13.570;2023-08-08T09:47:59;14.80;99.90
72940;DHT22;61094;51.154;13.570;2023-08-08T09:53:01;14.90;99.90
72940;DHT22;61094;51.154;13.570;2023-08-08T09:58:04;15.00;99.90
72940;DHT22;61094;51.154;13.570;2023-08-08T10:03:08;15.10;99.90
72940;DHT22;61094;51.154;13.570;2023-08-08T10:08:10;15.10;99.50
72940;DHT22;61094;51.154;13.570;2023-08-08T10:13:19;15.30;99.70
72940;DHT22;61094;51.154;13.570;2023-08-08T10:18:23;15.30;99.10
72940;DHT22;61094;51.154;13.570;2023-08-08T10:23:25;15.40;96.80
72940;DHT22;61094;51.154;13.570;2023-08-08T10:28:27;15.50;98.40
72940;DHT22;61094;51.154;13.570;2023-08-08T10:33:40;15.70;96.70
72940;DHT22;61094;51.154;13.570;2023-08-08T10:38:44;15.90;97.70
72940;DHT22;61094;51.154;13.570;2023-08-08T10:43:49;16.20;93.90
72940;DHT22;61094;51.154;13.570;2023-08-08T10:48:54;16.40;93.70
72940;DHT22;61094;51.154;13.570;2023-08-08T10:53:57;16.60;91.90
72940;DHT22;61094;51.154;13.570;2023-08-08T10:58:59;16.70;89.40
72940;DHT22;61094;51.154;13.570;2023-08-08T11:04:04;16.70;89.20
72940;DHT22;61094;51.154;13.570;2023-08-08T11:09:07;16.70;90.50
72940;DHT22;61094;51.154;13.570;2023-08-08T11:14:11;17.00;84.10
72940;DHT22;61094;51.154;13.570;2023-08-08T11:19:14;17.50;78.60
72940;DHT22;61094;51.154;13.570;2023-08-08T11:24:16;17.80;74.20
72940;DHT22;61094;51.154;13.570;2023-08-08T11:29:18;17.90;75.70
72940;DHT22;61094;51.154;13.570;2023-08-08T11:34:22;17.90;60.80
72940;DHT22;61094;51.154;13.570;2023-08-08T11:39:24;18.00;59.80
72940;DHT22;61094;51.154;13.570;2023-08-08T11:44:27;18.20;59.70
72940;DHT22;61094;51.154;13.570;2023-08-08T11:49:30;18.50;61.80
72940;DHT22;61094;51.154;13.570;2023-08-08T11:54:39;18.80;57.70
72940;DHT22;61094;51.154;13.570;2023-08-08T11:59:42;18.60;54.70
72940;DHT22;61094;51.154;13.570;2023-08-08T12:04:46;18.50;56.50
72940;DHT22;61094;51.154;13.570;2023-08-08T12:09:48;18.60;64.50
72940;DHT22;61094;51.154;13.570;2023-08-08T12:14:49;18.60;52.80
72940;DHT22;61094;51.154;13.570;2023-08-08T12:19:53;18.30;57.30
72940;DHT22;61094;51.154;13.570;2023-08-08T12:24:54;17.10;99.90
72940;DHT22;61094;51.154;13.570;2023-08-08T12:29:56;15.40;99.90
72940;DHT22;61094;51.154;13.570;2023-08-08T12:34:59;14.60;99.90
72940;DHT22;61094;51.154;13.570;2023-08-08T12:40:01;14.40;99.90
72940;DHT22;61094;51.154;13.570;2023-08-08T12:45:06;14.50;99.90
72940;DHT22;61094;51.154;13.570;2023-08-08T12:50:09;15.40;99.90
72940;DHT22;61094;51.154;13.570;2023-08-08T12:55:11;16.30;99.90
72940;DHT22;61094;51.154;13.570;2023-08-08T13:00:16;16.50;99.90
72940;DHT22;61094;51.154;13.570;2023-08-08T13:05:19;16.40;99.90
72940;DHT22;61094;51.154;13.570;2023-08-08T13:10:21;16.30;99.90
72940;DHT22;61094;51.154;13.570;2023-08-08T13:15:23;16.30;99.90
72940;DHT22;61094;51.154;13.570;2023-08-08T13:20:26;16.80;99.90
72940;DHT22;61094;51.154;13.570;2023-08-08T13:25:28;17.10;99.90
72940;DHT22;61094;51.154;13.570;2023-08-08T13:30:32;17.20;99.90
72940;DHT22;61094;51.154;13.570;2023-08-08T13:35:35;17.40;99.90
72940;DHT22;61094;51.154;13.570;2023-08-08T13:40:37;17.70;99.90
72940;DHT22;61094;51.154;13.570;2023-08-08T13:45:39;18.00;99.90
72940;DHT22;61094;51.154;13.570;2023-08-08T13:50:42;18.60;97.70
72940;DHT22;61094;51.154;13.570;2023-08-08T13:55:44;19.30;99.90
72940;DHT22;61094;51.154;13.570;2023-08-08T14:00:46;19.70;96.70
72940;DHT22;61094;51.154;13.570;2023-08-08T14:05:49;19.60;61.80
72940;DHT22;61094;51.154;13.570;2023-08-08T14:10:52;19.40;61.50
72940;DHT22;61094;51.154;13.570;2023-08-08T14:15:54;19.10;59.10
72940;DHT22;61094;51.154;13.570;2023-08-08T14:20:57;18.90;77.20
72940;DHT22;61094;51.154;13.570;2023-08-08T14:25:58;18.60;55.10
72940;DHT22;61094;51.154;13.570;2023-08-08T14:31:00;18.30;74.50
72940;DHT22;61094;51.154;13.570;2023-08-08T14:36:04;18.20;74.20
72940;DHT22;61094;51.154;13.570;2023-08-08T14:41:06;18.50;67.00
72940;DHT22;61094;51.154;13.570;2023-08-08T14:46:08;19.00;53.80
72940;DHT22;61094;51.154;13.570;2023-08-08T14:51:11;19.40;50.40
72940;DHT22;61094;51.154;13.570;2023-08-08T14:56:17;19.40;55.90
72940;DHT22;61094;51.154;13.570;2023-08-08T15:01:18;19.60;47.60
72940;DHT22;61094;51.154;13.570;2023-08-08T15:06:22;19.70;49.30
72940;DHT22;61094;51.154;13.570;2023-08-08T15:11:23;19.70;54.60
72940;DHT22;61094;51.154;13.570;2023-08-08T15:16:25;19.70;44.40
72940;DHT22;61094;51.154;13.570;2023-08-08T15:21:29;19.70;44.20
72940;DHT22;61094;51.154;13.570;2023-08-08T15:26:31;19.80;41.80
72940;DHT22;61094;51.154;13.570;2023-08-08T15:31:33;20.00;44.90
72940;DHT22;61094;51.154;13.570;2023-08-08T15:36:36;20.10;41.80
72940;DHT22;61094;51.154;13.570;2023-08-08T15:41:38;19.80;44.10
72940;DHT22;61094;51.154;13.570;2023-08-08T15:46:40;19.40;40.50
72940;DHT22;61094;51.154;13.570;2023-08-08T15:51:43;19.10;41.40
72940;DHT22;61094;51.154;13.570;2023-08-08T15:56:44;18.90;42.80
72940;DHT22;61094;51.154;13.570;2023-08-08T16:01:46;18.60;47.80
72940;DHT22;61094;51.154;13.570;2023-08-08T16:06:49;18.40;45.70
72940;DHT22;61094;51.154;13.570;2023-08-08T16:11:51;18.20;47.90
72940;DHT22;61094;51.154;13.570;2023-08-08T16:16:53;18.30;47.90
72940;DHT22;61094;51.154;13.570;2023-08-08T16:21:56;18.30;48.10
72940;DHT22;61094;51.154;13.570;2023-08-08T16:26:58;18.30;51.50
72940;DHT22;61094;51.154;13.570;2023-08-08T16:32:00;18.20;51.90
72940;DHT22;61094;51.154;13.570;2023-08-08T16:37:03;18.00;65.10
72940;DHT22;61094;51.154;13.570;2023-08-08T16:42:05;17.80;72.70
72940;DHT22;61094;51.154;13.570;2023-08-08T16:47:07;17.60;75.20
72940;DHT22;61094;51.154;13.570;2023-08-08T16:52:10;17.50;80.60
72940;DHT22;61094;51.154;13.570;2023-08-08T16:57:12;17.50;80.70
72940;DHT22;61094;51.154;13.570;2023-08-08T17:02:14;17.40;80.20
72940;DHT22;61094;51.154;13.570;2023-08-08T17:07:17;17.30;80.70
72940;DHT22;61094;51.154;13.570;2023-08-08T17:12:19;17.30;81.90
72940;DHT22;61094;51.154;13.570;2023-08-08T17:17:21;17.30;87.90
72940;DHT22;61094;51.154;13.570;2023-08-08T17:22:24;17.20;90.60
72940;DHT22;61094;51.154;13.570;2023-08-08T17:27:26;17.20;90.60
72940;DHT22;61094;51.154;13.570;2023-08-08T17:32:28;17.10;91.00
72940;DHT22;61094;51.154;13.570;2023-08-08T17:37:31;17.00;91.90
72940;DHT22;61094;51.154;13.570;2023-08-08T17:42:33;16.90;92.30
72940;DHT22;61094;51.154;13.570;2023-08-08T17:47:35;16.70;92.70
72940;DHT22;61094;51.154;13.570;2023-08-08T17:52:40;16.70;92.30
72940;DHT22;61094;51.154;13.570;2023-08-08T17:57:42;16.60;93.20
72940;DHT22;61094;51.154;13.570;2023-08-08T18:02:43;16.50;93.40
72940;DHT22;61094;51.154;13.570;2023-08-08T18:07:47;16.50;93.00
72940;DHT22;61094;51.154;13.570;2023-08-08T18:12:48;16.50;93.00
72940;DHT22;61094;51.154;13.570;2023-08-08T18:17:50;16.50;93.70
72940;DHT22;61094;51.154;13.570;2023-08-08T18:22:53;16.40;93.60
72940;DHT22;61094;51.154;13.570;2023-08-08T18:27:55;16.40;93.40
72940;DHT22;61094;51.154;13.570;2023-08-08T18:32:57;16.30;93.60
72940;DHT22;61094;51.154;13.570;2023-08-08T18:38:00;16.20;94.30
72940;DHT22;61094;51.154;13.570;2023-08-08T18:43:02;16.10;95.20
72940;DHT22;61094;51.154;13.570;2023-08-08T18:48:05;16.00;96.30
72940;DHT22;61094;51.154;13.570;2023-08-08T18:53:08;15.80;96.80
72940;DHT22;61094;51.154;13.570;2023-08-08T18:58:10;15.70;97.50
72940;DHT22;61094;51.154;13.570;2023-08-08T19:03:13;15.60;98.50
72940;DHT22;61094;51.154;13.570;2023-08-08T19:08:16;15.50;98.70
72940;DHT22;61094;51.154;13.570;2023-08-08T19:13:18;15.40;98.90
72940;DHT22;61094;51.154;13.570;2023-08-08T19:18:20;15.30;99.80
72940;DHT22;61094;51.154;13.570;2023-08-08T19:23:24;15.20;99.90
72940;DHT22;61094;51.154;13.570;2023-08-08T19:28:26;15.20;99.90
72940;DHT22;61094;51.154;13.570;2023-08-08T19:33:28;15.20;99.90
72940;DHT22;61094;51.154;13.570;2023-08-08T19:38:32;15.10;99.90
72940;DHT22;61094;51.154;13.570;2023-08-08T19:43:34;15.00;99.90
72940;DHT22;61094;51.154;13.570;2023-08-08T19:48:35;15.00;99.90
72940;DHT22;61094;51.154;13.570;2023-08-08T19:53:39;14.90;99.90
72940;DHT22;61094;51.154;13.570;2023-08-08T19:58:40;14.90;99.90
72940;DHT22;61094;51.154;13.570;2023-08-08T20:03:42;14.90;99.90
72940;DHT22;61094;51.154;13.570;2023-08-08T20:08:45;14.90;99.90
72940;DHT22;61094;51.154;13.570;2023-08-08T20:13:47;14.80;99.90
72940;DHT22;61094;51.154;13.570;2023-08-08T20:18:49;14.90;99.90
72940;DHT22;61094;51.154;13.570;2023-08-08T20:23:53;14.90;99.90
72940;DHT22;61094;51.154;13.570;2023-08-08T20:28:54;14.80;99.90
72940;DHT22;61094;51.154;13.570;2023-08-08T20:33:56;14.80;99.90
72940;DHT22;61094;51.154;13.570;2023-08-08T20:38:59;14.70;99.90
72940;DHT22;61094;51.154;13.570;2023-08-08T20:44:01;14.70;99.90
72940;DHT22;61094;51.154;13.570;2023-08-08T20:49:05;14.70;99.90
72940;DHT22;61094;51.154;13.570;2023-08-08T20:54:08;14.70;99.90
72940;DHT22;61094;51.154;13.570;2023-08-08T20:59:10;14.70;99.90
72940;DHT22;61094;51.154;13.570;2023-08-08T21:04:11;14.70;99.90
72940;DHT22;61094;51.154;13.570;2023-08-08T21:09:14;14.70;99.90
72940;DHT22;61094;51.154;13.570;2023-08-08T21:14:16;14.70;99.90
72940;DHT22;61094;51.154;13.570;2023-08-08T21:19:18;14.70;99.90
72940;DHT22;61094;51.154;13.570;2023-08-08T21:24:21;14.70;99.90
72940;DHT22;61094;51.154;13.570;2023-08-08T21:29:23;14.80;99.90
72940;DHT22;61094;51.154;13.570;2023-08-08T21:34:25;14.80;99.90
72940;DHT22;61094;51.154;13.570;2023-08-08T21:39:28;14.80;99.80
72940;DHT22;61094;51.154;13.570;2023-08-08T21:44:30;14.80;99.60
72940;DHT22;61094;51.154;13.570;2023-08-08T21:49:35;14.90;99.50
72940;DHT22;61094;51.154;13.570;2023-08-08T21:54:39;14.80;99.60
72940;DHT22;61094;51.154;13.570;2023-08-08T21:59:40;14.80;99.60
72940;DHT22;61094;51.154;13.570;2023-08-08T22:04:42;14.80;99.30
72940;DHT22;61094;51.154;13.570;2023-08-08T22:09:45;14.70;99.50
72940;DHT22;61094;51.154;13.570;2023-08-08T22:14:47;14.70;99.70
72940;DHT22;61094;51.154;13.570;2023-08-08T22:19:49;14.70;99.30
72940;DHT22;61094;51.154;13.570;2023-08-08T22:24:52;14.70;99.70
72940;DHT22;61094;51.154;13.570;2023-08-08T22:29:54;14.60;99.70
72940;DHT22;61094;51.154;13.570;2023-08-08T22:34:55;14.50;99.80
72940;DHT22;61094;51.154;13.570;2023-08-08T22:39:58;14.50;99.70
72940;DHT22;61094;51.154;13.570;2023-08-08T22:45:00;14.50;99.70
72940;DHT22;61094;51.154;13.570;2023-08-08T22:50:04;14.50;99.50
72940;DHT22;61094;51.154;13.570;2023-08-08T22:55:08;14.50;99.70
72940;DHT22;61094;51.154;13.570;2023-08-08T23:00:10;14.50;99.80
72940;DHT22;61094;51.154;13.570;2023-08-08T23:05:13;14.50;99.90
72940;DHT22;61094;51.154;13.570;2023-08-08T23:10:16;14.40;99.90
72940;DHT22;61094;51.154;13.570;2023-08-08T23:15:18;14.30;99.90
72940;DHT22;61094;51.154;13.570;2023-08-08T23:20:20;14.30;99.90
72940;DHT22;61094;51.154;13.570;2023-08-08T23:25:23;14.20;99.90
72940;DHT22;61094;51.154;13.570;2023-08-08T23:30:25;14.10;99.90
72940;DHT22;61094;51.154;13.570;2023-08-08T23:35:27;14.00;99.90
72940;DHT22;61094;51.154;13.570;2023-08-08T23:40:30;14.00;99.90
72940;DHT22;61094;51.154;13.570;2023-08-08T23:45:32;13.90;99.90
72940;DHT22;61094;51.154;13.570;2023-08-08T23:50:33;13.90;99.90
72940;DHT22;61094;51.154;13.570;2023-08-08T23:55:37;13.90;99.90
